Manchester, MI (48158)

4:20 AM EST on February 06, 2016 (GMT -0500)
Chuck's House | | Change Station
CLOSE
Current Station
Personal Weather Station
Location: Manchester, MI
Elevation: 899 ft
Nearby Weather Stations

Elev 899 ft 42.15 °N, 84.03 °W | Updated 8 minutes ago

Partly Cloudy
Partly Cloudy
22.5 °F
Feels Like 22 °F
N
0.0
Wind Variable Wind from West

Today
High -- | Low -- °F
--% Chance of Precip.
Yesterday
High -- | Low -- °F
Precip. -- in
Pressure 30.30 in
Visibility 10.0 miles
Clouds Few 12000 ft
Windchill 22 °F
Dew Point 20 °F
Humidity 90%
Rainfall 0.00 in
Snow Depth Not available.
7:44 AM 5:56 PM
Waning Crescent, 6% visible
METAR KARB 060853Z AUTO 25004KT 10SM FEW120 M05/M07 A3026 RMK AO2 SLP258 T10501072 56001 TSNO
Pressure 30.30 in
Visibility 10.0 miles
Clouds Few 12000 ft
Windchill 22 °F
Dew Point 20 °F
Humidity 90%
Rainfall 0.00 in
Snow Depth Not available.
7:44 AM 5:56 PM
Waning Crescent, 6% visible
METAR KARB 060853Z AUTO 25004KT 10SM FEW120 M05/M07 A3026 RMK AO2 SLP258 T10501072 56001 TSNO

10-Day Weather Forecast

Almanac

Astronomy

Feb. 06, 2016 Rise Set
Actual Time
Civil Twilight
Nautical Twilight
Astronomical Twilight
Moon
Length of Visible Light
Length of Day
Tomorrow will be .
, % of the Moon is Illuminated

Today's Extremes

State Highs State Lows

Community

WunderPhotos

Upload Photos

1,890,933 photos uploaded!

WunderBlog® & News

Nearby

Air Quality

  Air Quality AQ Index Pollutant
Not available.

Snow Depth

Station Depth Elevation

Earthquake Activity

City Distance Mag. Time & Date
Minimum magnitude displayed is 2.5.

Coastal Water Temperatures

Place Temperature

Stations

Nearby Weather Stations

Station Location Temp. Windchill Dew Point Humidity Wind Precip. Elev Updated Type
                   

Watches & Warnings

There are currently no watches in effect.